Terminal Aerodrome Forecast
Issued by NWS

Home | Current Version | Previous Version | Text Only | Print | Product List | Glossary On
Versions: 1 2 3 4 5 6 7 8 9 10 11 12 13 14 15 16 17 18 19 20 21 22 23 24
000
FTUS43 KDVN 282300
TAFBRL
TAF
KBRL 282339Z 0100/0124 11005KT 1 1/2SM -SN BR BKN020 OVC035
     FM010300 12007KT 5SM -SN BR VCSH SCT020 OVC030
      TEMPO 0103/0105 2SM -SN BR BKN015 OVC025
     FM010600 17006KT 4SM BR OVC022
     FM011300 21007KT P6SM BKN030
     FM011900 25011KT P6SM SCT080 BKN250=

USA.gov is the U.S. government's official web portal to all federal, state and local government web resources and services.